createdAt,value
2023-04-11T00:00:09.253Z,0.80
2023-04-11T00:02:38.343Z,0.93
2023-04-11T00:05:05.498Z,0.90
2023-04-11T00:07:31.837Z,1.13
2023-04-11T00:09:58.809Z,0.83
2023-04-11T00:12:25.103Z,0.97
2023-04-11T00:14:53.035Z,1.10
2023-04-11T00:17:20.038Z,1.17
2023-04-11T00:19:47.853Z,0.90
2023-04-11T00:22:15.525Z,1.13
2023-04-11T00:24:41.878Z,1.43
2023-04-11T00:27:08.757Z,1.00
2023-04-11T00:29:36.207Z,1.20
2023-04-11T00:32:02.974Z,2.50
2023-04-11T00:34:29.856Z,1.87
2023-04-11T00:36:56.483Z,1.50
2023-04-11T00:39:25.594Z,1.17
2023-04-11T00:41:51.953Z,1.13
2023-04-11T00:44:18.767Z,1.80
2023-04-11T00:46:46.246Z,1.60
2023-04-11T00:49:12.759Z,1.93
2023-04-11T00:51:39.022Z,1.60
2023-04-11T00:54:09.463Z,1.70
2023-04-11T00:56:35.749Z,2.00
2023-04-11T00:59:01.983Z,2.03
2023-04-11T01:01:29.300Z,1.90
2023-04-11T01:03:55.803Z,2.03
2023-04-11T01:06:22.722Z,2.53
2023-04-11T01:08:49.924Z,2.47
2023-04-11T01:11:19.244Z,2.20
2023-04-11T01:13:46.087Z,2.10
2023-04-11T01:16:14.241Z,2.47
2023-04-11T01:18:41.275Z,2.77
2023-04-11T01:21:08.316Z,2.30
2023-04-11T01:23:35.158Z,2.30
2023-04-11T01:26:01.492Z,2.30
2023-04-11T01:28:27.747Z,2.30
2023-04-11T01:30:54.010Z,2.53
2023-04-11T01:33:20.492Z,2.33
2023-04-11T01:35:46.725Z,2.10
2023-04-11T01:38:12.992Z,2.57
2023-04-11T01:40:40.053Z,2.80
2023-04-11T01:43:07.743Z,3.40
2023-04-11T01:45:34.116Z,2.50
2023-04-11T01:48:05.521Z,2.47
2023-04-11T01:50:31.779Z,2.30
2023-04-11T01:52:57.928Z,2.63
2023-04-11T01:55:24.523Z,2.53
2023-04-11T01:57:51.318Z,2.33
2023-04-11T02:00:18.851Z,2.83
2023-04-11T02:02:45.105Z,3.03
2023-04-11T02:05:11.583Z,3.37
2023-04-11T02:07:37.762Z,3.27
2023-04-11T02:10:04.960Z,2.70
2023-04-11T02:12:31.147Z,2.80
2023-04-11T02:14:57.982Z,2.97
2023-04-11T02:17:25.155Z,2.60
2023-04-11T02:19:51.454Z,2.70
2023-04-11T02:22:17.686Z,2.60
2023-04-11T02:24:45.612Z,2.83
2023-04-11T02:27:12.531Z,2.83
2023-04-11T02:29:38.843Z,2.47
2023-04-11T02:32:05.924Z,2.87
2023-04-11T02:34:32.198Z,2.67
2023-04-11T02:36:58.425Z,3.07
2023-04-11T02:39:24.603Z,2.80
2023-04-11T02:41:50.844Z,3.50
2023-04-11T02:44:18.253Z,2.93
2023-04-11T02:46:44.610Z,3.67
2023-04-11T02:49:11.449Z,3.27
2023-04-11T02:51:37.655Z,3.40
2023-04-11T02:54:04.402Z,3.37
2023-04-11T02:56:30.888Z,3.10
2023-04-11T02:58:57.614Z,3.50
2023-04-11T03:01:24.484Z,3.60
2023-04-11T03:03:50.909Z,3.60
2023-04-11T03:06:17.809Z,3.20
2023-04-11T03:08:43.957Z,3.40
2023-04-11T03:11:10.798Z,3.60
2023-04-11T03:13:38.521Z,3.73
2023-04-11T03:16:05.982Z,3.10
2023-04-11T03:18:32.177Z,4.40
2023-04-11T03:20:58.400Z,3.23
2023-04-11T03:23:25.270Z,3.27
2023-04-11T03:25:52.847Z,3.60
2023-04-11T03:28:19.157Z,3.50
2023-04-11T03:30:45.666Z,3.07
2023-04-11T03:33:12.218Z,3.40
2023-04-11T03:35:38.432Z,3.10
2023-04-11T03:38:04.647Z,3.40
2023-04-11T03:40:31.565Z,3.00
2023-04-11T03:43:02.938Z,4.60
2023-04-11T03:45:30.744Z,3.40
2023-04-11T03:47:56.953Z,4.17
2023-04-11T03:50:23.114Z,3.40
2023-04-11T03:52:49.566Z,5.10
2023-04-11T03:55:15.818Z,3.50
2023-04-11T03:57:42.679Z,3.70
2023-04-11T04:00:10.444Z,2.97
2023-04-11T04:02:36.871Z,3.57
2023-04-11T04:05:03.710Z,3.97
2023-04-11T04:07:31.093Z,2.87
2023-04-11T04:09:57.326Z,3.47
2023-04-11T04:12:26.103Z,3.73
2023-04-11T04:14:53.187Z,3.07
2023-04-11T04:17:19.641Z,4.73
2023-04-11T04:19:45.801Z,4.00
2023-04-11T04:22:14.288Z,3.70
2023-04-11T04:24:41.327Z,3.60
2023-04-11T04:27:08.521Z,2.97
2023-04-11T04:29:37.218Z,3.80
2023-04-11T04:32:10.291Z,3.37
2023-04-11T04:34:40.050Z,3.30
2023-04-11T04:37:06.197Z,3.43
2023-04-11T04:39:33.287Z,4.33
2023-04-11T04:42:00.822Z,3.77
2023-04-11T04:44:27.339Z,4.03
2023-04-11T04:46:53.830Z,3.90
2023-04-11T04:49:20.783Z,3.87
2023-04-11T04:51:47.224Z,3.73
2023-04-11T04:54:13.659Z,4.27
2023-04-11T04:56:40.749Z,4.13
2023-04-11T04:59:07.241Z,4.40
2023-04-11T05:01:34.334Z,3.50
2023-04-11T05:04:01.742Z,4.33
2023-04-11T05:06:30.735Z,2.90
2023-04-11T05:08:58.261Z,3.50
2023-04-11T05:11:24.600Z,3.93
2023-04-11T05:13:50.822Z,3.77
2023-04-11T05:16:17.098Z,3.33
2023-04-11T05:18:43.780Z,4.87
2023-04-11T05:21:10.247Z,3.50
2023-04-11T05:23:37.235Z,4.50
2023-04-11T05:26:03.767Z,4.00
2023-04-11T05:28:30.749Z,3.73
2023-04-11T05:30:57.054Z,3.73
2023-04-11T05:33:23.926Z,3.37
2023-04-11T05:35:50.419Z,4.10
2023-04-11T05:38:16.619Z,5.03
2023-04-11T05:40:43.468Z,4.10
2023-04-11T05:43:12.914Z,4.07
2023-04-11T05:45:39.171Z,4.03
2023-04-11T05:48:07.063Z,4.23
2023-04-11T05:50:33.544Z,4.67
2023-04-11T05:52:59.766Z,3.93
2023-04-11T05:55:25.963Z,4.40
2023-04-11T05:57:52.740Z,4.37
2023-04-11T06:00:20.052Z,3.87
2023-04-11T06:02:48.354Z,4.50
2023-04-11T06:05:15.976Z,3.83
2023-04-11T06:07:42.306Z,4.30
2023-04-11T06:10:09.624Z,3.67
2023-04-11T06:12:35.988Z,4.23
2023-04-11T06:15:03.969Z,3.90
2023-04-11T06:17:30.344Z,4.30
2023-04-11T06:19:56.559Z,4.77
2023-04-11T06:22:22.874Z,3.73
2023-04-11T06:24:49.101Z,4.17
2023-04-11T06:27:15.739Z,4.00
2023-04-11T06:29:42.840Z,4.33
2023-04-11T06:32:10.843Z,3.93
2023-04-11T06:34:38.380Z,3.27
2023-04-11T06:37:05.677Z,3.37
2023-04-11T06:39:32.027Z,4.07
2023-04-11T06:41:58.274Z,3.90
2023-04-11T06:44:24.545Z,3.60
2023-04-11T06:46:50.939Z,3.90
2023-04-11T06:49:18.347Z,4.27
2023-04-11T06:51:46.455Z,3.40
2023-04-11T06:54:12.948Z,4.00
2023-04-11T06:56:39.495Z,3.73
2023-04-11T06:59:05.741Z,4.33
2023-04-11T07:01:34.862Z,3.50
2023-04-11T07:04:01.735Z,3.70
2023-04-11T07:06:28.690Z,4.10
2023-04-11T07:08:56.123Z,4.17
2023-04-11T07:11:22.388Z,4.17
2023-04-11T07:13:49.141Z,4.00
2023-04-11T07:16:15.850Z,3.13
2023-04-11T07:18:42.246Z,3.60
2023-04-11T07:21:11.209Z,3.80
2023-04-11T07:23:38.120Z,3.30
2023-04-11T07:26:04.797Z,3.47
2023-04-11T07:28:31.015Z,3.33
2023-04-11T07:30:57.581Z,3.00
2023-04-11T07:33:23.831Z,2.87
2023-04-11T07:35:50.056Z,3.97
2023-04-11T07:38:26.415Z,3.10
2023-04-11T07:40:53.224Z,2.93
2023-04-11T07:43:19.455Z,3.00
2023-04-11T07:45:45.885Z,2.50
2023-04-11T07:48:12.206Z,2.67
2023-04-11T07:50:38.377Z,2.80
2023-04-11T07:53:04.640Z,3.00
2023-04-11T07:55:30.916Z,2.03
2023-04-11T07:57:57.823Z,2.87
2023-04-11T08:00:24.282Z,2.40
2023-04-11T08:02:51.132Z,1.90
2023-04-11T08:05:17.678Z,2.73
2023-04-11T08:07:44.092Z,2.57
2023-04-11T08:10:10.285Z,2.57
2023-04-11T08:12:36.789Z,2.60
2023-04-11T08:15:04.530Z,2.47
2023-04-11T08:17:36.916Z,2.17
2023-04-11T08:20:04.582Z,1.87
2023-04-11T08:22:32.379Z,1.83
2023-04-11T08:24:58.573Z,1.83
2023-04-11T08:27:25.008Z,2.53
2023-04-11T08:29:51.677Z,1.93
2023-04-11T08:32:18.594Z,2.90
2023-04-11T08:34:44.840Z,2.40
2023-04-11T08:37:11.949Z,2.20
2023-04-11T08:39:38.230Z,1.93
2023-04-11T08:42:05.069Z,2.33
2023-04-11T08:44:31.358Z,1.60
2023-04-11T08:46:57.663Z,1.90
2023-04-11T08:49:24.463Z,2.27
2023-04-11T08:51:53.448Z,1.43
2023-04-11T08:54:19.578Z,2.03
2023-04-11T08:56:46.800Z,1.87
2023-04-11T08:59:13.238Z,2.70
2023-04-11T09:01:39.695Z,1.87
2023-04-11T09:04:05.938Z,2.37
2023-04-11T09:06:33.529Z,1.80
2023-04-11T09:09:00.693Z,1.83
2023-04-11T09:11:27.111Z,1.43
2023-04-11T09:14:06.959Z,1.70
2023-04-11T09:16:33.252Z,3.53
2023-04-11T09:18:59.439Z,1.67
2023-04-11T09:21:27.198Z,1.97
2023-04-11T09:23:54.441Z,1.60
2023-04-11T09:26:25.540Z,1.80
2023-04-11T09:28:52.673Z,1.77
2023-04-11T09:31:19.165Z,1.60
2023-04-11T09:33:52.919Z,1.57
2023-04-11T09:36:21.204Z,1.67
2023-04-11T09:38:47.486Z,1.83
2023-04-11T09:41:14.586Z,1.77
2023-04-11T09:43:51.292Z,2.13
2023-04-11T09:46:20.056Z,1.63
2023-04-11T09:48:47.304Z,1.60
2023-04-11T09:51:23.956Z,1.90
2023-04-11T09:53:58.929Z,2.20
2023-04-11T09:56:26.947Z,1.73
2023-04-11T09:58:54.462Z,1.57
2023-04-11T10:01:21.345Z,1.33
2023-04-11T10:03:50.189Z,1.80
2023-04-11T10:06:22.802Z,1.60
2023-04-11T10:08:50.211Z,1.43
2023-04-11T10:11:19.590Z,1.97
2023-04-11T10:13:47.429Z,1.83
2023-04-11T10:16:14.805Z,1.77
2023-04-11T10:19:20.343Z,1.50
2023-04-11T10:21:46.568Z,1.47
2023-04-11T10:24:16.680Z,1.83
2023-04-11T10:26:51.265Z,1.70
2023-04-11T10:29:46.190Z,1.73
2023-04-11T10:32:18.328Z,1.63
2023-04-11T10:35:31.752Z,1.80
2023-04-11T10:37:58.088Z,1.70
2023-04-11T10:40:25.362Z,1.77
2023-04-11T10:42:51.576Z,1.60
2023-04-11T10:45:23.764Z,1.63
2023-04-11T10:48:07.127Z,1.60
2023-04-11T10:50:41.317Z,1.80
2023-04-11T10:53:10.305Z,1.93
2023-04-11T10:55:47.266Z,2.03
2023-04-11T10:58:16.026Z,2.53
2023-04-11T11:01:25.767Z,2.03
2023-04-11T11:03:59.271Z,1.70
2023-04-11T11:06:25.867Z,1.60
2023-04-11T11:08:52.094Z,1.60
2023-04-11T11:11:18.855Z,1.53
2023-04-11T11:13:46.983Z,1.73
2023-04-11T11:16:15.476Z,1.77
2023-04-11T11:18:44.896Z,2.10
2023-04-11T11:21:17.050Z,2.07
2023-04-11T11:23:54.696Z,1.90
2023-04-11T11:26:21.089Z,2.10
2023-04-11T11:28:48.211Z,1.60
2023-04-11T11:31:15.265Z,2.10
2023-04-11T11:33:41.670Z,2.20
2023-04-11T11:36:08.888Z,2.00
2023-04-11T11:38:35.349Z,1.60
2023-04-11T11:41:02.031Z,1.80
2023-04-11T11:43:28.533Z,1.93
2023-04-11T11:46:13.449Z,2.03
2023-04-11T11:48:42.385Z,2.00
2023-04-11T11:51:08.904Z,1.80
2023-04-11T11:53:35.263Z,1.60
2023-04-11T11:56:11.998Z,1.80
2023-04-11T11:58:42.609Z,1.60
2023-04-11T12:03:38.455Z,1.97
2023-04-11T12:06:07.906Z,1.67
2023-04-11T12:08:34.105Z,1.80
2023-04-11T12:11:01.860Z,1.57
2023-04-11T12:13:30.982Z,1.80
2023-04-11T12:15:57.832Z,1.57
2023-04-11T12:18:25.238Z,1.53
2023-04-11T12:20:52.018Z,1.53
2023-04-11T12:23:19.294Z,1.37
2023-04-11T12:25:45.873Z,1.67
2023-04-11T12:28:12.066Z,1.40
2023-04-11T12:30:38.680Z,1.50
2023-04-11T12:33:05.650Z,1.40
2023-04-11T12:35:32.469Z,1.47
2023-04-11T12:37:58.785Z,1.70
2023-04-11T12:40:25.753Z,1.50
2023-04-11T12:42:56.441Z,1.60
2023-04-11T12:45:23.693Z,1.70
2023-04-11T12:47:49.965Z,1.60
2023-04-11T12:50:16.255Z,1.60
2023-04-11T12:52:42.443Z,1.90
2023-04-11T12:55:09.508Z,1.37
2023-04-11T12:57:36.728Z,1.60
2023-04-11T13:00:06.264Z,1.47
2023-04-11T13:02:41.667Z,1.40
2023-04-11T13:05:11.133Z,1.97
2023-04-11T13:07:37.455Z,1.50
2023-04-11T13:10:06.455Z,1.37
2023-04-11T13:12:38.711Z,1.30
2023-04-11T13:15:07.178Z,1.20
2023-04-11T13:17:33.550Z,2.30
2023-04-11T13:19:59.796Z,1.60
2023-04-11T13:22:26.377Z,1.23
2023-04-11T13:24:52.597Z,1.80
2023-04-11T13:27:18.819Z,1.70
2023-04-11T13:29:45.138Z,1.47
2023-04-11T13:32:12.015Z,1.53
2023-04-11T13:34:38.253Z,1.50
2023-04-11T13:37:04.526Z,1.10
2023-04-11T13:39:30.789Z,1.27
2023-04-11T13:41:56.901Z,1.13
2023-04-11T13:44:23.015Z,1.47
2023-04-11T13:46:49.154Z,1.20
2023-04-11T13:49:16.206Z,1.20
2023-04-11T13:51:42.420Z,1.40
2023-04-11T13:54:08.581Z,1.13
2023-04-11T13:56:35.903Z,1.20
2023-04-11T13:59:02.704Z,1.23
2023-04-11T14:01:29.067Z,1.37
2023-04-11T14:03:55.521Z,1.37
2023-04-11T14:06:22.561Z,1.60
2023-04-11T14:08:49.337Z,1.67
2023-04-11T14:11:16.970Z,1.53
2023-04-11T14:13:43.234Z,1.80
2023-04-11T14:16:09.868Z,1.80
2023-04-11T14:18:36.074Z,1.37
2023-04-11T14:21:02.871Z,1.40
2023-04-11T14:23:29.941Z,1.47
2023-04-11T14:25:56.283Z,1.50
2023-04-11T14:28:22.542Z,1.37
2023-04-11T14:30:49.490Z,1.20
2023-04-11T14:33:15.826Z,1.80
2023-04-11T14:35:46.071Z,2.03
2023-04-11T14:38:13.135Z,1.80
2023-04-11T14:40:39.982Z,1.73
2023-04-11T14:43:06.166Z,1.70
2023-04-11T14:45:32.570Z,1.40
2023-04-11T14:47:58.865Z,1.50
2023-04-11T14:50:27.027Z,1.30
2023-04-11T14:52:55.047Z,1.40
2023-04-11T14:55:21.913Z,1.37
2023-04-11T14:57:51.612Z,0.80
2023-04-11T15:00:19.005Z,1.10
2023-04-11T15:02:46.544Z,1.20
2023-04-11T15:05:16.729Z,1.33
2023-04-11T15:07:43.297Z,1.10
2023-04-11T15:10:10.000Z,1.30
2023-04-11T15:12:36.306Z,1.30
2023-04-11T15:15:04.469Z,1.07
2023-04-11T15:17:30.677Z,1.20
2023-04-11T15:19:56.951Z,1.43
2023-04-11T15:22:23.295Z,1.20
2023-04-11T15:24:50.096Z,1.27
2023-04-11T15:27:16.377Z,1.40
2023-04-11T15:29:43.034Z,1.80
2023-04-11T15:32:09.814Z,1.30
2023-04-11T15:34:36.483Z,1.40
2023-04-11T15:37:02.826Z,1.40
2023-04-11T15:39:29.104Z,1.43
2023-04-11T15:41:57.060Z,1.30
2023-04-11T15:44:23.269Z,1.30
2023-04-11T15:46:49.731Z,1.83
2023-04-11T15:49:16.504Z,1.57
2023-04-11T15:51:44.291Z,1.40
2023-04-11T15:54:10.680Z,1.40
2023-04-11T15:56:36.961Z,1.47
2023-04-11T15:59:03.168Z,1.50
2023-04-11T16:01:29.315Z,1.70
2023-04-11T16:03:55.927Z,1.93
2023-04-11T16:06:23.212Z,1.87
2023-04-11T16:08:50.194Z,1.93
2023-04-11T16:11:16.605Z,1.50
2023-04-11T16:13:43.593Z,1.40
2023-04-11T16:16:10.006Z,1.90
2023-04-11T16:18:36.280Z,1.73
2023-04-11T16:21:02.489Z,1.60
2023-04-11T16:23:29.345Z,1.73
2023-04-11T16:25:55.656Z,1.53
2023-04-11T16:28:21.842Z,2.03
2023-04-11T16:30:48.018Z,1.90
2023-04-11T16:33:14.170Z,2.13
2023-04-11T16:35:40.391Z,1.77
2023-04-11T16:38:06.601Z,1.70
2023-04-11T16:40:34.219Z,1.83
2023-04-11T16:43:00.397Z,1.73
2023-04-11T16:45:26.635Z,1.90
2023-04-11T16:47:52.970Z,1.87
2023-04-11T16:50:19.331Z,2.03
2023-04-11T16:52:45.576Z,2.10
2023-04-11T16:55:11.685Z,2.50
2023-04-11T16:57:38.519Z,1.60
2023-04-11T17:00:16.455Z,2.13
2023-04-11T17:02:42.787Z,1.77
2023-04-11T17:05:09.424Z,1.93
2023-04-11T17:07:35.596Z,2.00
2023-04-11T17:10:02.217Z,2.30
2023-04-11T17:12:28.434Z,1.87
2023-04-11T17:14:55.298Z,1.93
2023-04-11T17:17:22.419Z,1.97
2023-04-11T17:19:48.640Z,2.00
2023-04-11T17:22:14.903Z,1.70
2023-04-11T17:24:41.271Z,1.93
2023-04-11T17:27:07.427Z,2.17
2023-04-11T17:29:33.701Z,2.03
2023-04-11T17:32:01.195Z,1.77
2023-04-11T17:34:28.055Z,1.80
2023-04-11T17:36:56.639Z,2.20
2023-04-11T17:39:22.791Z,1.80
2023-04-11T17:41:49.125Z,2.10
2023-04-11T17:44:15.448Z,2.23
2023-04-11T17:46:41.960Z,1.90
2023-04-11T17:49:08.884Z,2.30
2023-04-11T17:51:38.728Z,2.20
2023-04-11T17:54:07.758Z,2.03
2023-04-11T17:56:33.997Z,1.93
2023-04-11T17:59:00.220Z,1.70
2023-04-11T18:01:31.276Z,2.40
2023-04-11T18:03:59.231Z,2.03
2023-04-11T18:06:27.357Z,1.77
2023-04-11T18:08:53.546Z,2.03
2023-04-11T18:11:20.202Z,1.83
2023-04-11T18:13:53.824Z,1.97
2023-04-11T18:16:21.013Z,1.93
2023-04-11T18:18:47.323Z,2.00
2023-04-11T18:21:13.771Z,1.60
2023-04-11T18:23:40.586Z,1.93
2023-04-11T18:26:06.858Z,1.97
2023-04-11T18:28:33.118Z,1.87
2023-04-11T18:30:59.686Z,1.70
2023-04-11T18:33:26.246Z,2.20
2023-04-11T18:35:52.560Z,2.10
2023-04-11T18:38:18.759Z,2.40
2023-04-11T18:40:46.217Z,1.67
2023-04-11T18:43:12.703Z,2.00
2023-04-11T18:45:39.792Z,1.90
2023-04-11T18:48:07.347Z,2.27
2023-04-11T18:50:37.894Z,2.03
2023-04-11T18:53:05.824Z,2.10
2023-04-11T18:55:34.116Z,2.80
2023-04-11T18:58:03.609Z,2.60
2023-04-11T19:00:33.750Z,2.30
2023-04-11T19:03:00.628Z,2.50
2023-04-11T19:05:28.190Z,2.70
2023-04-11T19:07:55.164Z,2.57
2023-04-11T19:10:21.887Z,2.50
2023-04-11T19:12:48.233Z,2.70
2023-04-11T19:15:15.286Z,3.30
2023-04-11T19:17:41.511Z,3.00
2023-04-11T19:20:11.661Z,2.90
2023-04-11T19:22:39.900Z,2.30
2023-04-11T19:25:08.896Z,2.40
2023-04-11T19:27:38.317Z,2.50
2023-04-11T19:30:05.742Z,2.17
2023-04-11T19:32:35.298Z,2.60
2023-04-11T19:35:01.522Z,2.73
2023-04-11T19:37:29.126Z,2.67
2023-04-11T19:39:55.420Z,2.80
2023-04-11T19:42:21.631Z,2.30
2023-04-11T19:44:47.921Z,3.00
2023-04-11T19:47:14.126Z,2.60
2023-04-11T19:49:40.913Z,2.40
2023-04-11T19:52:07.109Z,2.77
2023-04-11T19:54:33.734Z,2.47
2023-04-11T19:56:59.909Z,2.53
2023-04-11T19:59:26.130Z,2.50
2023-04-11T20:01:53.434Z,2.53
2023-04-11T20:04:19.906Z,2.70
2023-04-11T20:06:49.912Z,2.40
2023-04-11T20:09:16.123Z,2.07
2023-04-11T20:11:42.902Z,3.13
2023-04-11T20:14:09.063Z,2.20
2023-04-11T20:16:35.732Z,2.97
2023-04-11T20:19:02.434Z,2.50
2023-04-11T20:21:28.767Z,2.80
2023-04-11T20:23:55.841Z,2.27
2023-04-11T20:26:22.498Z,2.70
2023-04-11T20:28:49.527Z,2.47
2023-04-11T20:31:15.804Z,2.27
2023-04-11T20:33:43.412Z,2.53
2023-04-11T20:36:10.334Z,2.80
2023-04-11T20:38:36.723Z,2.27
2023-04-11T20:41:04.851Z,2.53
2023-04-11T20:43:31.133Z,2.37
2023-04-11T20:45:57.642Z,2.50
2023-04-11T20:48:29.403Z,2.33
2023-04-11T20:50:55.674Z,2.43
2023-04-11T20:53:22.112Z,3.00
2023-04-11T20:55:48.542Z,2.53
2023-04-11T20:58:17.794Z,2.30
2023-04-11T21:00:44.054Z,2.47
2023-04-11T21:03:10.627Z,2.77
2023-04-11T21:05:37.218Z,2.47
2023-04-11T21:08:05.732Z,2.73
2023-04-11T21:10:31.971Z,2.60
2023-04-11T21:12:58.259Z,2.30
2023-04-11T21:15:25.058Z,2.43
2023-04-11T21:17:51.421Z,2.57
2023-04-11T21:20:18.080Z,2.60
2023-04-11T21:22:46.044Z,2.70
2023-04-11T21:25:12.276Z,2.10
2023-04-11T21:27:40.043Z,2.63
2023-04-11T21:30:07.577Z,2.40
2023-04-11T21:32:34.511Z,2.60
2023-04-11T21:35:00.934Z,2.50
2023-04-11T21:37:27.251Z,2.20
2023-04-11T21:39:53.785Z,2.30
2023-04-11T21:42:20.134Z,2.13
2023-04-11T21:44:46.359Z,2.87
2023-04-11T21:47:12.502Z,2.23
2023-04-11T21:49:39.319Z,2.30
2023-04-11T21:52:05.825Z,2.43
2023-04-11T21:54:33.089Z,2.30
2023-04-11T21:56:59.394Z,2.70
2023-04-11T21:59:25.851Z,2.00
2023-04-11T22:01:52.388Z,2.33
2023-04-11T22:04:18.807Z,2.07
2023-04-11T22:06:46.046Z,2.27
2023-04-11T22:09:12.716Z,2.20
2023-04-11T22:11:39.026Z,1.93
2023-04-11T22:14:07.817Z,2.40
2023-04-11T22:16:34.488Z,2.03
2023-04-11T22:19:00.897Z,2.33
2023-04-11T22:21:28.025Z,2.20
2023-04-11T22:23:56.626Z,2.33
2023-04-11T22:26:25.918Z,2.07
2023-04-11T22:28:53.610Z,2.53
2023-04-11T22:31:20.482Z,2.17
2023-04-11T22:33:46.756Z,2.07
2023-04-11T22:36:12.911Z,2.17
2023-04-11T22:38:39.516Z,2.40
2023-04-11T22:41:06.771Z,2.53
2023-04-11T22:43:32.915Z,2.03
2023-04-11T22:45:59.576Z,2.53
2023-04-11T22:48:28.953Z,2.20
2023-04-11T22:50:58.316Z,2.30
2023-04-11T22:53:24.767Z,2.50
2023-04-11T22:55:51.047Z,2.50
2023-04-11T22:58:17.890Z,2.40
2023-04-11T23:00:45.232Z,2.47
2023-04-11T23:03:13.166Z,2.30
2023-04-11T23:05:39.513Z,2.13
2023-04-11T23:08:06.075Z,2.60
2023-04-11T23:10:32.324Z,2.40
2023-04-11T23:12:58.626Z,2.10
2023-04-11T23:15:25.847Z,2.57
2023-04-11T23:17:52.147Z,2.27
2023-04-11T23:20:21.339Z,2.50
2023-04-11T23:22:47.648Z,2.53
2023-04-11T23:25:14.467Z,2.00
2023-04-11T23:27:40.996Z,2.07
2023-04-11T23:30:10.843Z,2.23
2023-04-11T23:32:38.022Z,2.13
2023-04-11T23:35:05.483Z,2.00
2023-04-11T23:37:31.701Z,2.27
2023-04-11T23:39:58.643Z,2.40
2023-04-11T23:42:26.387Z,2.17
2023-04-11T23:44:52.683Z,2.23
2023-04-11T23:47:18.912Z,2.03
2023-04-11T23:49:45.823Z,2.00
2023-04-11T23:52:13.346Z,1.63
2023-04-11T23:54:40.061Z,2.17
2023-04-11T23:57:06.338Z,1.80
2023-04-11T23:59:32.575Z,1.60
